createdAt,value
2022-10-11T00:00:14.264Z,9.61
2022-10-11T00:03:40.291Z,9.61
2022-10-11T00:07:01.701Z,9.63
2022-10-11T00:10:08.310Z,9.64
2022-10-11T00:13:14.348Z,9.59
2022-10-11T00:16:36.779Z,9.59
2022-10-11T00:19:39.559Z,9.59
2022-10-11T00:22:37.351Z,9.56
2022-10-11T00:25:46.279Z,9.63
2022-10-11T00:28:54.453Z,9.69
2022-10-11T00:31:57.279Z,9.78
2022-10-11T00:35:12.322Z,9.84
2022-10-11T00:38:11.259Z,9.92
2022-10-11T00:41:20.288Z,10.00
2022-10-11T00:44:14.283Z,10.06
2022-10-11T00:47:14.259Z,10.08
2022-10-11T00:50:26.231Z,10.05
2022-10-11T00:53:38.274Z,9.96
2022-10-11T00:56:48.248Z,9.88
2022-10-11T00:59:54.249Z,9.82
2022-10-11T01:03:01.260Z,9.80
2022-10-11T01:06:07.720Z,9.78
2022-10-11T01:09:04.604Z,9.76
2022-10-11T01:12:05.309Z,9.74
2022-10-11T01:15:02.280Z,9.73
2022-10-11T01:18:14.285Z,9.68
2022-10-11T01:25:11.878Z,9.61
2022-10-11T01:28:09.492Z,9.62
2022-10-11T01:31:04.353Z,9.65
2022-10-11T01:34:12.244Z,9.72
2022-10-11T01:37:06.295Z,9.77
2022-10-11T01:39:54.580Z,9.80
2022-10-11T01:43:00.345Z,9.85
2022-10-11T01:46:18.249Z,9.87
2022-10-11T01:49:18.219Z,9.84
2022-10-11T01:52:15.272Z,9.84
2022-10-11T01:55:25.308Z,9.89
2022-10-11T01:58:20.249Z,9.91
2022-10-11T02:01:31.358Z,9.88
2022-10-11T02:04:47.596Z,9.74
2022-10-11T02:08:02.304Z,9.61
2022-10-11T02:11:11.276Z,9.57
2022-10-11T02:14:08.322Z,9.54
2022-10-11T02:17:19.307Z,9.52
2022-10-11T02:20:28.332Z,9.54
2022-10-11T02:23:26.315Z,9.52
2022-10-11T02:26:38.300Z,9.49
2022-10-11T02:29:47.267Z,9.46
2022-10-11T02:32:56.339Z,9.45
2022-10-11T02:36:13.202Z,9.43
2022-10-11T02:39:14.271Z,9.46
2022-10-11T02:42:23.258Z,9.48
2022-10-11T02:45:23.200Z,9.51
2022-10-11T02:48:33.299Z,9.54
2022-10-11T02:51:47.217Z,9.55
2022-10-11T02:54:45.284Z,9.58
2022-10-11T02:57:40.223Z,9.60
2022-10-11T03:00:21.701Z,9.63
2022-10-11T03:03:01.406Z,9.64
2022-10-11T03:05:45.281Z,9.66
2022-10-11T03:08:30.103Z,9.68
2022-10-11T03:11:36.265Z,9.72
2022-10-11T03:14:31.444Z,9.72
2022-10-11T03:17:35.203Z,9.73
2022-10-11T03:20:29.320Z,9.72
2022-10-11T03:23:23.280Z,9.69
2022-10-11T03:26:27.278Z,9.68
2022-10-11T03:29:16.215Z,9.63
2022-10-11T03:32:10.303Z,9.57
2022-10-11T03:35:05.343Z,9.50
2022-10-11T03:38:00.330Z,9.46
2022-10-11T03:41:23.344Z,9.41
2022-10-11T03:44:06.444Z,9.38
2022-10-11T03:46:46.417Z,9.37
2022-10-11T03:49:44.315Z,9.32
2022-10-11T03:52:43.476Z,9.28
2022-10-11T03:55:52.290Z,9.21
2022-10-11T03:59:06.218Z,9.18
2022-10-11T04:02:21.282Z,9.20
2022-10-11T04:05:33.232Z,9.21
2022-10-11T04:08:37.267Z,9.26
2022-10-11T04:11:50.317Z,9.28
2022-10-11T04:18:09.265Z,9.36
2022-10-11T04:24:48.313Z,9.41
2022-10-11T04:28:04.584Z,9.45
2022-10-11T04:31:19.315Z,9.44
2022-10-11T04:34:31.216Z,9.44
2022-10-11T04:37:43.339Z,9.42
2022-10-11T04:40:57.226Z,9.42
2022-10-11T04:51:02.311Z,9.29
2022-10-11T04:54:18.561Z,9.25
2022-10-11T04:57:42.589Z,9.19
2022-10-11T05:00:48.244Z,9.16
2022-10-11T05:07:24.661Z,9.11
2022-10-11T05:10:54.972Z,9.09
2022-10-11T05:14:07.264Z,9.08
2022-10-11T05:17:24.345Z,9.04
2022-10-11T05:20:20.598Z,9.08
2022-10-11T05:22:48.954Z,9.13
2022-10-11T05:25:47.803Z,9.17
2022-10-11T05:28:58.367Z,9.27
2022-10-11T05:32:13.383Z,9.40
2022-10-11T05:35:22.117Z,9.51
2022-10-11T05:38:47.367Z,9.62
2022-10-11T05:45:06.447Z,9.59
2022-10-11T05:51:59.307Z,9.61
2022-10-11T05:55:21.486Z,9.54
2022-10-11T05:58:13.236Z,9.36
2022-10-11T06:01:22.338Z,9.39
2022-10-11T06:08:27.436Z,9.41
2022-10-11T06:11:33.838Z,9.47
2022-10-11T06:17:55.496Z,9.51
2022-10-11T06:20:41.677Z,9.60
2022-10-11T07:17:30.971Z,10.75
2022-10-11T07:22:04.500Z,10.61
2022-10-11T07:24:45.698Z,10.57
2022-10-11T07:27:27.561Z,10.58
2022-10-11T07:30:32.725Z,10.70
2022-10-11T07:33:17.015Z,10.81
2022-10-11T07:35:58.053Z,10.72
2022-10-11T07:38:33.643Z,10.73
2022-10-11T07:41:11.234Z,10.81
2022-10-11T07:44:08.492Z,10.98
2022-10-11T07:47:11.371Z,11.21
2022-10-11T07:49:43.053Z,11.33
2022-10-11T07:52:11.498Z,11.44
2022-10-11T07:54:43.612Z,11.40
2022-10-11T07:57:12.029Z,11.46
2022-10-11T07:59:46.671Z,11.59
2022-10-11T08:02:20.023Z,11.81
2022-10-11T08:04:55.475Z,11.92
2022-10-11T08:07:32.993Z,12.08
2022-10-11T08:10:08.092Z,12.19
2022-10-11T08:12:37.556Z,12.26
2022-10-11T08:15:12.976Z,12.44
2022-10-11T08:17:42.675Z,12.59
2022-10-11T08:20:12.410Z,12.73
2022-10-11T08:22:43.500Z,12.86
2022-10-11T08:25:15.649Z,12.99
2022-10-11T08:27:47.373Z,13.07
2022-10-11T08:30:27.181Z,13.12
2022-10-11T08:33:26.195Z,13.20
2022-10-11T08:40:04.226Z,13.00
2022-10-11T09:43:23.381Z,14.10
2022-10-11T09:45:53.870Z,14.19
2022-10-11T09:49:02.798Z,14.29
2022-10-11T09:58:36.680Z,14.22
2022-10-11T10:01:48.373Z,14.35
2022-10-11T10:04:20.109Z,14.46
2022-10-11T10:07:08.238Z,14.50
2022-10-11T10:09:43.384Z,14.56
2022-10-11T10:12:19.483Z,14.65
2022-10-11T10:15:21.689Z,14.83
2022-10-11T10:20:36.583Z,15.11
2022-10-11T10:23:12.207Z,15.25
2022-10-11T10:25:51.039Z,15.44
2022-10-11T10:28:24.170Z,15.76
2022-10-11T10:30:56.521Z,16.15
2022-10-11T10:33:27.796Z,16.47
2022-10-11T10:36:01.200Z,16.79
2022-10-11T10:38:43.009Z,17.14
2022-10-11T10:41:20.219Z,17.40
2022-10-11T10:44:01.153Z,17.63
2022-10-11T10:46:49.931Z,17.93
2022-10-11T10:49:53.768Z,18.17
2022-10-11T10:52:58.008Z,18.53
2022-10-11T10:55:43.530Z,19.06
2022-10-11T10:58:58.937Z,19.46
2022-10-11T11:01:33.742Z,19.90
2022-10-11T11:04:30.767Z,20.14
2022-10-11T11:07:37.316Z,20.37
2022-10-11T11:10:31.430Z,20.68
2022-10-11T11:13:30.077Z,20.98
2022-10-11T11:16:30.299Z,20.89
2022-10-11T11:19:26.477Z,21.26
2022-10-11T11:22:29.187Z,20.83
2022-10-11T11:25:40.264Z,20.98
2022-10-11T11:28:38.529Z,21.42
2022-10-11T11:31:57.781Z,21.64
2022-10-11T11:34:45.402Z,22.15
2022-10-11T11:37:35.894Z,22.61
2022-10-11T11:40:16.548Z,22.83
2022-10-11T11:42:59.586Z,22.98
2022-10-11T11:46:01.945Z,22.56
2022-10-11T11:48:38.701Z,22.31
2022-10-11T11:51:30.596Z,22.50
2022-10-11T11:58:23.140Z,22.92
2022-10-11T12:02:06.732Z,23.21
2022-10-11T12:08:16.604Z,23.50
2022-10-11T12:08:48.616Z,23.63
2022-10-11T12:15:02.680Z,23.44
2022-10-11T12:15:26.257Z,23.37
2022-10-11T12:18:14.379Z,23.52
2022-10-11T12:21:13.532Z,23.76
2022-10-11T12:23:49.281Z,23.90
2022-10-11T12:26:39.408Z,24.05
2022-10-11T12:29:59.057Z,23.67
2022-10-11T12:32:50.619Z,24.17
2022-10-11T12:35:44.140Z,24.61
2022-10-11T12:38:29.004Z,24.94
2022-10-11T12:41:36.599Z,25.06
2022-10-11T12:44:23.089Z,25.21
2022-10-11T12:47:26.713Z,25.61
2022-10-11T12:50:29.017Z,25.24
2022-10-11T12:53:16.860Z,25.31
2022-10-11T12:56:01.723Z,25.64
2022-10-11T12:58:48.575Z,25.69
2022-10-11T13:01:23.958Z,24.97
2022-10-11T13:04:11.456Z,23.85
2022-10-11T13:06:54.857Z,23.42
2022-10-11T13:09:32.578Z,23.51
2022-10-11T13:12:10.230Z,23.59
2022-10-11T13:15:01.037Z,23.83
2022-10-11T13:17:37.997Z,24.01
2022-10-11T13:20:38.953Z,24.16
2022-10-11T13:24:32.811Z,24.85
2022-10-11T13:27:29.004Z,25.39
2022-10-11T13:30:33.417Z,25.74
2022-10-11T13:33:25.779Z,25.51
2022-10-11T13:36:05.432Z,24.61
2022-10-11T13:38:55.755Z,24.13
2022-10-11T13:41:50.648Z,23.70
2022-10-11T13:44:36.122Z,23.19
2022-10-11T13:47:06.754Z,22.78
2022-10-11T13:49:38.442Z,22.49
2022-10-11T13:52:23.355Z,21.95
2022-10-11T13:54:58.176Z,21.60
2022-10-11T13:57:45.254Z,21.26
2022-10-11T14:00:25.756Z,21.08
2022-10-11T14:03:08.535Z,20.79
2022-10-11T14:05:42.859Z,20.62
2022-10-11T14:08:27.761Z,20.39
2022-10-11T14:10:58.569Z,20.28
2022-10-11T14:13:33.427Z,20.24
2022-10-11T14:16:07.709Z,20.20
2022-10-11T14:18:44.015Z,20.19
2022-10-11T14:21:31.827Z,20.22
2022-10-11T14:24:04.914Z,20.11
2022-10-11T14:26:38.483Z,20.06
2022-10-11T14:29:23.447Z,20.12
2022-10-11T14:31:52.953Z,20.14
2022-10-11T14:34:23.146Z,20.11
2022-10-11T14:36:51.298Z,20.07
2022-10-11T14:39:23.135Z,20.02
2022-10-11T14:41:52.757Z,19.95
2022-10-11T14:44:22.342Z,19.92
2022-10-11T14:46:54.570Z,19.89
2022-10-11T14:49:26.023Z,19.71
2022-10-11T14:51:56.515Z,19.54
2022-10-11T14:54:27.340Z,19.35
2022-10-11T14:56:57.445Z,19.21
2022-10-11T14:59:29.017Z,19.05
2022-10-11T15:01:56.975Z,18.90
2022-10-11T15:04:26.543Z,18.78
2022-10-11T15:06:56.247Z,18.66
2022-10-11T15:09:29.580Z,18.52
2022-10-11T15:11:58.155Z,18.36
2022-10-11T15:14:26.388Z,18.19
2022-10-11T15:16:56.118Z,18.01
2022-10-11T15:19:25.416Z,17.80
2022-10-11T15:21:53.351Z,17.58
2022-10-11T15:24:21.451Z,17.40
2022-10-11T15:26:50.418Z,17.20
2022-10-11T15:29:18.855Z,17.03
2022-10-11T15:31:46.844Z,16.81
2022-10-11T15:34:15.239Z,16.63
2022-10-11T15:36:43.094Z,16.47
2022-10-11T15:39:30.631Z,16.33
2022-10-11T15:41:59.381Z,16.18
2022-10-11T15:44:36.881Z,16.07
2022-10-11T15:47:05.119Z,15.94
2022-10-11T15:49:33.333Z,15.81
2022-10-11T15:52:01.789Z,15.68
2022-10-11T15:54:30.278Z,15.52
2022-10-11T15:56:58.741Z,15.38
2022-10-11T15:59:26.790Z,15.25
2022-10-11T16:01:54.844Z,15.12
2022-10-11T16:04:22.771Z,14.99
2022-10-11T16:06:50.691Z,14.84
2022-10-11T16:09:18.626Z,14.73
2022-10-11T16:11:46.445Z,14.59
2022-10-11T16:14:14.328Z,14.45
2022-10-11T16:16:42.255Z,14.35
2022-10-11T16:19:10.162Z,14.26
2022-10-11T16:21:38.041Z,14.18
2022-10-11T16:24:05.959Z,14.10
2022-10-11T16:26:33.986Z,14.04
2022-10-11T16:29:01.896Z,13.99
2022-10-11T16:31:29.785Z,13.95
2022-10-11T16:33:57.695Z,13.91
2022-10-11T16:36:35.135Z,13.88
2022-10-11T16:39:09.046Z,13.85
2022-10-11T16:41:37.514Z,13.81
2022-10-11T16:44:06.784Z,13.79
2022-10-11T16:46:35.105Z,13.79
2022-10-11T16:49:03.997Z,13.79
2022-10-11T16:51:31.967Z,13.80
2022-10-11T16:53:59.807Z,13.83
2022-10-11T16:56:28.192Z,13.88
2022-10-11T16:58:56.099Z,13.91
2022-10-11T17:01:26.965Z,13.95
2022-10-11T17:03:55.857Z,14.00
2022-10-11T17:06:23.986Z,14.06
2022-10-11T17:08:52.927Z,14.11
2022-10-11T17:11:22.417Z,14.16
2022-10-11T17:13:53.309Z,14.19
2022-10-11T17:16:22.176Z,14.19
2022-10-11T17:18:50.248Z,14.19
2022-10-11T17:21:20.168Z,14.19
2022-10-11T17:24:00.506Z,14.17
2022-10-11T17:26:30.487Z,14.15
2022-10-11T17:29:00.370Z,14.13
2022-10-11T17:31:29.824Z,14.09
2022-10-11T17:34:00.447Z,14.01
2022-10-11T17:36:31.802Z,13.92
2022-10-11T17:39:01.699Z,13.88
2022-10-11T17:41:32.191Z,13.84
2022-10-11T17:44:02.839Z,13.79
2022-10-11T17:46:39.436Z,13.76
2022-10-11T17:49:10.962Z,13.73
2022-10-11T17:51:39.814Z,13.68
2022-10-11T17:54:12.474Z,13.63
2022-10-11T17:56:41.814Z,13.59
2022-10-11T17:59:17.178Z,13.58
2022-10-11T18:01:45.275Z,13.59
2022-10-11T18:04:16.761Z,13.59
2022-10-11T18:06:49.372Z,13.59
2022-10-11T18:09:18.812Z,13.61
2022-10-11T18:11:47.450Z,13.62
2022-10-11T18:14:15.745Z,13.64
2022-10-11T18:16:43.826Z,13.67
2022-10-11T18:19:13.183Z,13.69
2022-10-11T18:21:41.420Z,13.71
2022-10-11T18:24:15.053Z,13.74
2022-10-11T18:26:45.459Z,13.79
2022-10-11T18:29:13.800Z,13.84
2022-10-11T18:31:42.194Z,13.90
2022-10-11T18:38:55.015Z,13.94
2022-10-11T18:41:30.766Z,13.95
2022-10-11T18:44:01.768Z,13.93
2022-10-11T18:46:30.427Z,13.91
2022-10-11T18:49:02.106Z,13.89
2022-10-11T18:51:35.931Z,13.86
2022-10-11T18:54:06.223Z,13.84
2022-10-11T18:56:36.825Z,13.79
2022-10-11T18:59:06.514Z,13.74
2022-10-11T19:01:38.451Z,13.71
2022-10-11T19:04:09.778Z,13.69
2022-10-11T19:06:41.337Z,13.66
2022-10-11T19:09:13.261Z,13.66
2022-10-11T19:11:41.795Z,13.65
2022-10-11T19:14:14.565Z,13.64
2022-10-11T19:16:46.227Z,13.63
2022-10-11T19:19:14.390Z,13.63
2022-10-11T19:21:42.732Z,13.63
2022-10-11T19:24:10.858Z,13.63
2022-10-11T19:26:40.886Z,13.62
2022-10-11T19:29:14.983Z,13.59
2022-10-11T19:31:45.711Z,13.62
2022-10-11T19:34:14.046Z,13.65
2022-10-11T19:36:42.731Z,13.69
2022-10-11T19:39:14.216Z,13.72
2022-10-11T19:41:43.295Z,13.76
2022-10-11T19:44:12.758Z,13.80
2022-10-11T19:46:57.538Z,13.84
2022-10-11T19:49:27.239Z,13.89
2022-10-11T19:51:55.838Z,13.94
2022-10-11T19:54:23.970Z,13.98
2022-10-11T19:56:52.567Z,14.01
2022-10-11T19:59:20.566Z,14.06
2022-10-11T20:01:52.762Z,14.10
2022-10-11T20:04:50.498Z,14.11
2022-10-11T20:07:10.480Z,14.09
2022-10-11T20:09:38.560Z,14.08
2022-10-11T20:12:09.649Z,14.07
2022-10-11T20:14:37.584Z,14.05
2022-10-11T20:17:05.561Z,14.04
2022-10-11T20:19:33.407Z,13.98
2022-10-11T20:22:01.596Z,13.94
2022-10-11T20:24:33.553Z,13.90
2022-10-11T20:27:04.520Z,13.86
2022-10-11T20:29:32.710Z,13.83
2022-10-11T20:32:00.653Z,13.78
2022-10-11T20:34:28.843Z,13.72
2022-10-11T20:36:57.018Z,13.66
2022-10-11T20:39:25.387Z,13.62
2022-10-11T20:41:53.387Z,13.57
2022-10-11T20:44:21.651Z,13.53
2022-10-11T20:46:49.955Z,13.51
2022-10-11T20:49:20.082Z,13.50
2022-10-11T20:51:48.677Z,13.51
2022-10-11T20:54:17.205Z,13.53
2022-10-11T20:56:45.195Z,13.55
2022-10-11T20:59:13.133Z,13.59
2022-10-11T21:01:41.690Z,13.65
2022-10-11T21:04:17.666Z,13.70
2022-10-11T21:06:48.175Z,13.77
2022-10-11T21:09:17.218Z,13.79
2022-10-11T21:11:46.090Z,13.83
2022-10-11T21:14:22.369Z,13.85
2022-10-11T21:16:50.264Z,13.83
2022-10-11T21:19:18.352Z,13.79
2022-10-11T21:21:53.305Z,13.77
2022-10-11T21:24:55.702Z,13.76
2022-10-11T21:27:24.920Z,13.69
2022-10-11T21:29:53.139Z,13.62
2022-10-11T21:32:20.877Z,13.56
2022-10-11T21:34:48.709Z,13.50
2022-10-11T21:37:16.487Z,13.45
2022-10-11T21:39:44.273Z,13.39
2022-10-11T21:42:12.107Z,13.32
2022-10-11T21:44:42.977Z,13.24
2022-10-11T21:47:11.179Z,13.18
2022-10-11T21:49:39.009Z,13.13
2022-10-11T21:52:06.832Z,13.08
2022-10-11T21:54:34.697Z,13.05
2022-10-11T21:57:02.670Z,13.00
2022-10-11T21:59:30.470Z,12.96
2022-10-11T22:02:01.895Z,12.92
2022-10-11T22:04:30.228Z,12.89
2022-10-11T22:06:58.092Z,12.85
2022-10-11T22:09:27.689Z,12.84
2022-10-11T22:11:56.630Z,12.84
2022-10-11T22:14:25.077Z,12.84
2022-10-11T22:16:52.854Z,12.86
2022-10-11T22:19:20.992Z,12.89
2022-10-11T22:21:48.847Z,12.94
2022-10-11T22:24:17.159Z,12.99
2022-10-11T22:26:45.107Z,13.03
2022-10-11T22:29:12.878Z,13.08
2022-10-11T22:31:40.753Z,13.11
2022-10-11T22:34:08.715Z,13.12
2022-10-11T22:36:36.542Z,13.13
2022-10-11T22:39:08.595Z,13.13
2022-10-11T22:41:37.409Z,13.14
2022-10-11T22:44:05.736Z,13.13
2022-10-11T22:46:33.585Z,13.11
2022-10-11T22:49:01.744Z,13.06
2022-10-11T22:51:29.675Z,13.01
2022-10-11T22:53:57.439Z,12.95
2022-10-11T22:56:25.401Z,12.89
2022-10-11T22:58:53.214Z,12.84
2022-10-11T23:01:21.037Z,12.80
2022-10-11T23:03:50.803Z,12.78
2022-10-11T23:06:18.752Z,12.76
2022-10-11T23:08:46.718Z,12.75
2022-10-11T23:11:14.603Z,12.75
2022-10-11T23:13:42.402Z,12.77
2022-10-11T23:16:12.376Z,12.81
2022-10-11T23:18:40.234Z,12.86
2022-10-11T23:21:08.528Z,12.90
2022-10-11T23:23:37.016Z,12.94
2022-10-11T23:26:08.128Z,12.99
2022-10-11T23:28:36.175Z,13.01
2022-10-11T23:31:16.731Z,13.04
2022-10-11T23:33:46.203Z,13.06
2022-10-11T23:36:19.948Z,13.07
2022-10-11T23:38:53.339Z,13.07
2022-10-11T23:41:24.262Z,13.03
2022-10-11T23:43:52.641Z,12.99
2022-10-11T23:46:20.799Z,12.95
2022-10-11T23:48:48.688Z,12.89
2022-10-11T23:51:16.607Z,12.83
2022-10-11T23:53:44.660Z,12.77
2022-10-11T23:56:12.975Z,12.73
2022-10-11T23:58:41.107Z,12.69
